East Flat Rock, NC (28726)

08:10 EDT je la 22an de septembro 2014 (GMT -0400)
Ridgeview | Change Station
CLOSE
Current Station
Personaj Veter-Stacioj
Location: Flat Rock, NC
Alteco: 2425 ft
Najbaraj veter-stacioj

Elev 2425 ft 35.26 °N, 82.45 °W | Updated 10 seconds ago

Sennuba
Sennuba
57.1 °F
Sentas kiel 57.1 °F
N
0.0
Vento Varianta Vento from SSOr
Gusts 3.0 mej/h

hodiaŭ
High -- | Low -- °F
--% Ebla precip.
hieraŭ
High -- | Low -- °F
Precip. -- co
7:17 AM 7:26 PM
Malkreskanta Lunarko, 3% visible
Aerpremo 30.04 co
Vidodistanco 10.0 mejloj
Nuboj Sennuba
Rosopunkto 51 °F
Humido 80%
Pluvokvanto 0.00 co
Neĝprofundo Not available.
UV 0 out of 12
Pollen 6.50 out of 12
Ozone Good
PM2.5 Good
Flu Activity Not available.
METAR KAVL 221154Z 36006KT 10SM CLR 14/09 A3009 RMK AO2 SLP170 T01390094 10189 20128 53013

More Conditions Fewer Conditions

Aerpremo 30.04 co
Vidodistanco 10.0 mejloj
Nuboj Sennuba
Rosopunkto 51 °F
Humido 80%
Pluvokvanto 0.00 co
Neĝprofundo Not available.
UV 0 out of 12
Pollen 6.50 out of 12
Ozone Good
PM2.5 Good
Flu Activity Not available.
METAR KAVL 221154Z 36006KT 10SM CLR 14/09 A3009 RMK AO2 SLP170 T01390094 10189 20128 53013

More Conditions Fewer Conditions

10-Day Weather Forecast

Almanac

Astronomio

Sep. 22, 2014 Leviĝo Subiro
Aktuala tempo 07:17 EDT 19:26 EDT
Civila krepusko 06:52 EDT 19:51 EDT
Naŭtika krepusko 06:22 EDT 20:21 EDT
Astronomia krepusko 05:52 EDT 20:51 EDT
Luno 05:47 EDT 18:32 EDT
Daŭro de videbla lumo 12h 59m
Daŭro de tago
12h 08m
Tomorrow will be 2m 12s shorter.
Malkreskanta Lunarko, 3% of the Moon is Illuminated
hodiaŭ
Malkreskanta Lunarko
Sep 24
Nova
Oct 1
Unua kvaronluno
Oct 8
Plenlumo
Oct 15
Lasta kvaronluno

Hodiaŭaj ekstremaĵoj

State Highs State Lows

Community

WunderPhotos

Upload Photos

1,755,417 photos uploaded!

WunderBlogs® & News

Nearby

Aerkvalito

  Aerkvalito Aerkvalita indico Poluanto
hieraŭ Good
PM2.5
hieraŭ Good
OZONE
nuna Good
OZONE
nuna Good
PM2.5
lundo Good
PM2.5
lundo Good
OZONE
mardo Good
PM2.5
mardo Good
OZONE
merkredo Good
PM2.5
merkredo Good
OZONE

Neĝa profundeco

Station Depth Alteco
No new snow has been reported.

Earthquake Activity

Urbo Distance Mag. Time & Date
New Ellenton, South Carolina 132 mejloj 2.6 16:38 EDT
2014-09-19
Minimum magnitude displayed is 2.5.

Coastal Water Temperatures

Loko Temperaturo
No Stations Reporting

Najbaraj veter-stacioj